ADDS METAR Data INFO
IDs: Format: Raw Decoded Include TAF

Data at: 0338 UTC 19 Jul 2018

KJCA 190315Z AUTO 00000KT 7SM SCT080 OVC100 26/23 A2998 RMK AO2 T02560233
KJCA 190255Z AUTO 10003KT 10SM -RA BKN085 OVC100 26/23 A2998 RMK AO2 T02610232
KJCA 190235Z AUTO 12008KT 10SM -RA OVC085 27/23 A2998 RMK AO2 T02660231
KJCA 190215Z AUTO 11005KT 7SM OVC085 27/23 A2997 RMK AO2 T02740232
KJCA 190155Z AUTO 00000KT 10SM BKN085 OVC120 26/24 A2996 RMK AO2 T02610237
KJCA 190135Z AUTO 00000KT 10SM SCT085 BKN120 27/24 A2995 RMK AO2 LTG DSNT S T02720239
KJCA 190115Z AUTO 12004KT 10SM SCT120 27/24 A2994 RMK AO2 T02710240
KJCA 190055Z AUTO 13004KT 10SM CLR 27/24 A2994 RMK AO2 T02670239
KJCA 190035Z AUTO 13004KT 10SM CLR 28/24 A2994 RMK AO2 LTG DSNT NW T02770238
KJCA 190015Z AUTO 14004KT 10SM SCT055 28/24 A2994 RMK AO2 T02760238
KJCA 182355Z AUTO 13003KT 10SM CLR 29/23 A2994 RMK AO2 T02910235 10321 20287 403210210
KJCA 182335Z AUTO 15004KT 10SM CLR 30/24 A2993 RMK AO2 T02950236
KJCA 182315Z AUTO 13004KT 10SM CLR 31/22 A2993 RMK AO2 T03070224
KJCA 182255Z AUTO 11004KT 10SM CLR 31/22 A2992 RMK AO2 T03090218
KJCA 182235Z AUTO 00000KT 10SM SCT044 SCT050 31/22 A2993 RMK AO2 T03060217
KJCA 182215Z AUTO 13004KT 10SM BKN041 OVC050 31/22 A2993 RMK AO2 T03060221
KJCA 182155Z AUTO 18003KT 10SM BKN043 BKN049 30/22 A2993 RMK AO2 T03050224
KJCA 182135Z AUTO 00000KT 10SM CLR 31/21 A2993 RMK AO2 T03130209
KJCA 182115Z AUTO 00000KT 10SM CLR 31/21 A2993 RMK AO2 T03120210
KJCA 182055Z AUTO 05003KT 10SM SCT038 SCT046 31/22 A2994 RMK AO2 T03080220
KJCA 182035Z AUTO 05004KT 10SM BKN038 32/22 A2994 RMK AO2 T03190225
KJCA 182015Z AUTO 00000KT 10SM BKN038 30/22 A2995 RMK AO2 T02990219
KJCA 181955Z AUTO 13004KT 10SM BKN036 31/22 A2995 RMK AO2 T03070224
KJCA 181935Z AUTO 10003KT 10SM SCT032 SCT048 SCT050 31/23 A2996 RMK AO2 T03090226
KJCA 181915Z AUTO 08006KT 10SM SCT032 SCT048 SCT055 30/23 A2997 RMK AO2 T03010226
KJCA 181855Z AUTO 03003KT 10SM SCT034 30/22 A2997 RMK AO2 T03020224
KJCA 181835Z AUTO 01005KT 10SM CLR 30/23 A2998 RMK AO2 LTG DSNT SE T03050226
KJCA 181815Z AUTO 00000KT 10SM SCT029 SCT034 BKN048 30/23 A2999 RMK AO2 T02980228
KJCA 181755Z AUTO 00000KT 10SM SCT027 SCT034 SCT042 29/23 A2999 RMK AO2 T02940226 10308 20229
KJCA 181735Z AUTO 12003KT 10SM BKN027 BKN034 BKN044 29/22 A3000 RMK AO2 T02900224
KJCA 181715Z AUTO 13003KT 10SM SCT027 SCT034 BKN110 29/23 A3000 RMK AO2 T02940230
KJCA 181655Z AUTO 00000KT 10SM SCT023 BKN110 28/22 A3001 RMK AO2 T02840224
KJCA 181635Z AUTO 10005KT 10SM SCT023 29/23 A3001 RMK AO2 T02880229
KJCA 181615Z AUTO 12005KT 10SM CLR 28/23 A3001 RMK AO2 T02850225
KJCA 181555Z AUTO 11005KT 10SM SCT110 28/22 A3001 RMK AO2 T02850224
KJCA 181535Z AUTO 04005KT 10SM SCT110 28/23 A3002 RMK AO2 T02790228
KJCA 181515Z AUTO 03004KT 10SM SCT110 27/23 A3002 RMK AO2 T02720228
KJCA 181455Z AUTO 02004KT 10SM SCT110 27/22 A3002 RMK AO2 T02650225
KJCA 181435Z AUTO 05003KT 10SM CLR 26/22 A3001 RMK AO2 T02640224
KJCA 181415Z AUTO 05004KT 10SM CLR 26/22 A3002 RMK AO2 T02640221
KJCA 181355Z AUTO 06003KT 10SM CLR 26/22 A3002 RMK AO2 T02560220
KJCA 181335Z AUTO 36003KT 10SM CLR 25/22 A3002 RMK AO2 T02540220
KJCA 181315Z AUTO 02003KT 10SM SCT110 25/22 A3002 RMK AO2 T02490216
KJCA 181255Z AUTO 36003KT 10SM OVC110 25/22 A3001 RMK AO2 T02460217
KJCA 181235Z AUTO 32004KT 10SM BKN110 24/22 A3002 RMK AO2 T02440220
KJCA 181215Z AUTO 00000KT 10SM CLR 23/22 A3001 RMK AO2 T02350222
KJCA 181155Z AUTO 34005KT 10SM CLR 23/22 A3000 RMK AO2 T02290218 10235 20210
KJCA 181135Z AUTO 33005KT 7SM BR CLR 22/22 A2999 RMK AO2 T02220217
KJCA 181115Z AUTO 00000KT 5SM BR CLR 22/21 A2999 RMK AO2 T02180215
KJCA 181055Z AUTO 26003KT 3 1/2SM BR CLR 21/21 A2998 RMK AO2 T02130211
KJCA 181035Z AUTO 31003KT 4SM BR CLR 21/21 A2997 RMK AO2 T02140212
KJCA 181015Z AUTO 00000KT 7SM CLR 22/21 A2996 RMK AO2 T02160213
KJCA 180955Z AUTO 33003KT 7SM CLR 22/21 A2996 RMK AO2 T02160211
KJCA 180935Z AUTO 34004KT 10SM CLR 22/21 A2995 RMK AO2 T02190213
KJCA 180915Z AUTO 30003KT 10SM CLR 22/21 A2995 RMK AO2 T02180213
KJCA 180855Z AUTO 27005KT 7SM CLR 22/21 A2995 RMK AO2 T02160212
KJCA 180835Z AUTO 28004KT 10SM CLR 22/21 A2995 RMK AO2 T02180212
KJCA 180815Z AUTO 28004KT 10SM CLR 22/21 A2995 RMK AO2 T02220213
KJCA 180755Z AUTO 29005KT 10SM CLR 22/21 A2995 RMK AO2 T02230213
KJCA 180735Z AUTO 28004KT 10SM CLR 22/21 A2995 RMK AO2 T02200212
KJCA 180715Z AUTO 25004KT 10SM CLR 22/21 A2995 RMK AO2 T02250214
KJCA 180655Z AUTO 24003KT 10SM CLR 23/21 A2995 RMK AO2 T02280213
KJCA 180635Z AUTO 28005KT 10SM CLR 23/21 A2996 RMK AO2 T02290214
KJCA 180615Z AUTO 31004KT 10SM CLR 23/21 A2997 RMK AO2 T02340214
KJCA 180555Z AUTO 29005KT 10SM CLR 24/21 A2997 RMK AO2 T02350214 10284 20234
KJCA 180535Z AUTO 28006KT 10SM CLR 24/22 A2998 RMK AO2 T02350216
KJCA 180515Z AUTO 25005KT 10SM CLR 24/22 A2998 RMK AO2 T02400217
KJCA 180455Z AUTO 27004KT 10SM CLR 24/22 A2999 RMK AO2 T02440217
KJCA 180435Z AUTO 32006KT 10SM CLR 24/22 A2999 RMK AO2 T02430216
KJCA 180415Z AUTO 30007KT 10SM CLR 25/21 A2999 RMK AO2 T02460214
KJCA 180355Z AUTO 28005KT 10SM CLR 24/22 A2999 RMK AO2 T02420217
KJCA 180335Z AUTO 29004KT 10SM CLR 25/22 A2999 RMK AO2 T02510216
KJCA 180315Z AUTO 29007KT 10SM CLR 25/22 A2999 RMK AO2 T02510217
KJCA 180255Z AUTO 27006KT 10SM CLR 25/22 A2999 RMK AO2 T02540217
KJCA 180235Z AUTO 28007KT 10SM CLR 26/22 A2999 RMK AO2 T02570216
KJCA 180215Z AUTO 29008KT 10SM SCT120 26/22 A2998 RMK AO2 T02620215
KJCA 180155Z AUTO 28006KT 10SM CLR 26/22 A2998 RMK AO2 LTG DSNT E T02650218
KJCA 180135Z AUTO 26005KT 10SM SCT120 27/23 A2998 RMK AO2 T02650228
KJCA 180115Z AUTO 27003KT 10SM OVC120 27/23 A2998 RMK AO2 LTG DSNT SE T02700227
KJCA 180055Z AUTO 28004KT 10SM BKN110 27/23 A2998 RMK AO2 LTG DSNT SE T02710228
KJCA 180035Z AUTO 27004KT 10SM SCT120 27/23 A2999 RMK AO2 T02720226
KJCA 180015Z AUTO 31005KT 10SM CLR 28/22 A2998 RMK AO2 T02790222
KJCA 172355Z AUTO 29006KT 10SM CLR 28/22 A2997 RMK AO2 T02850220 10319 20284 403190209
KJCA 172335Z AUTO 29005KT 10SM CLR 29/22 A2997 RMK AO2 T02910220
KJCA 172315Z AUTO 28007KT 10SM CLR 30/22 A2996 RMK AO2 LTG DSNT S T02960220
KJCA 172255Z AUTO 27007KT 10SM SCT046 30/22 A2995 RMK AO2 T03040224
KJCA 172235Z AUTO 27007KT 10SM SCT046 31/23 A2995 RMK AO2 T03130227
KJCA 172215Z AUTO 26007KT 10SM CLR 31/22 A2994 RMK AO2 LTG DSNT NE T03150224
KJCA 172155Z AUTO 26007KT 10SM CLR 32/22 A2995 RMK AO2 T03170223
KJCA 172135Z AUTO 25007KT 230V290 10SM CLR 32/22 A2995 RMK AO2 T03170223
KJCA 172115Z AUTO 27008KT 10SM CLR 32/22 A2996 RMK AO2 T03160218
KJCA 172055Z AUTO 26010KT 10SM SCT042 SCT048 31/23 A2995 RMK AO2 T03140226
KJCA 172035Z AUTO 27006KT 10SM CLR 32/23 A2995 RMK AO2 T03170228
KJCA 172015Z AUTO 26007KT 10SM CLR 31/23 A2995 RMK AO2 T03140225
KJCA 171955Z AUTO 28010KT 10SM SCT110 31/22 A2995 RMK AO2 T03150224
KJCA 171935Z AUTO 26007KT 10SM CLR 31/22 A2997 RMK AO2 T03110220
KJCA 171915Z AUTO 29008KT 10SM SCT040 SCT085 31/21 A2998 RMK AO2 LTG DSNT NW T03090213
KJCA 171855Z AUTO 25009KT 10SM SCT040 SCT047 31/23 A2998 RMK AO2 T03080228
KJCA 171835Z AUTO 24006KT 10SM SCT038 SCT043 BKN060 31/23 A2999 RMK AO2 T03080232
KJCA 171815Z AUTO 27007KT 10SM SCT038 BKN050 BKN060 30/23 A3000 RMK AO2 T03010229
KJCA 171755Z AUTO 25005KT 10SM SCT036 SCT055 30/23 A3001 RMK AO2 T03050234 10310 20222
KJCA 171735Z AUTO 27006KT 10SM SCT036 30/23 A3001 RMK AO2 T03040227
KJCA 171715Z AUTO 25004KT 10SM SCT027 SCT034 30/24 A3002 RMK AO2 T02990237
KJCA 171655Z AUTO 21004KT 10SM SCT025 29/24 A3003 RMK AO2 T02940236
KJCA 171635Z AUTO 25005KT 10SM BKN023 29/24 A3003 RMK AO2 T02860236
KJCA 171615Z AUTO 29007KT 240V320 10SM SCT021 29/24 A3004 RMK AO2 T02900239
KJCA 171555Z AUTO 21005KT 10SM SCT019 28/24 A3003 RMK AO2 T02830239